Latest Weather Observations for Grove - Huon Valley - Tasmania

Station Details ID: 094220 Name: GROVE (RESEARCH STATION) Lat: -42.99 Lon: 147.07 Height: 65.0 m
Data from the previous 72 hours : Issued at 5:21 pm EST Monday 23 July 2018
Date/Time
EST
Temp
°C
App
Temp
°C
Dew
Point
°C
Rel
Hum
%
Delta-T
°C
Wind Press
QNH
hPa
Press
MSL
hPa
Rain since
9am
mm
Dir  Spd
km/h
Gust
km/h
Spd
kts
Gust
kts
23/05:09pm 12.3 3.8 0.6 44 4.9 N 35 56 19 30 0.0
23/05:00pm 12.1 6.6 0.9 46 4.7 ENE 19 46 10 25 0.0
23/04:30pm 12.5 7 0.6 44 5 NNE 19 41 10 22 0.0
23/04:00pm 11.8 7.6 1.4 49 4.4 SSE 13 20 7 11 0.0
23/03:30pm 12.3 6.6 0.3 43 5 S 20 32 11 17 0.0
23/03:00pm 12.3 7.3 1.2 46 4.7 NNE 17 43 9 23 0.0
23/02:30pm 12.2 8.3 1.4 47 4.6 S 11 32 6 17 0.0
23/02:00pm 12 9 2.3 51 4.2 SSE 7 15 4 8 0.0
23/01:30pm 12.1 8.3 1.6 48 4.5 NNW 11 22 6 12 0.0
23/01:00pm 12.2 8.4 1.7 48 4.5 NW 11 19 6 10 0.0
23/12:30pm 12.1 8.5 0.3 44 4.9 NNE 9 37 5 20 0.0
23/12:00pm 11.7 5.2 0 44 4.8 N 24 41 13 22 0.0
23/11:42am 11.5 5.8 0.7 47 4.5 NNE 20 32 11 17 0.0
23/11:40am 11.6 4.8 0.5 46 4.6 NE 26 59 14 32 0.0
23/11:37am 11.9 2.4 -0.7 41 5.1 E 39 59 21 32 0.0
23/11:36am 11.8 1.6 -0.5 42 5 ENE 43 59 23 32 0.0
23/11:35am 11.8 1.6 -0.5 42 5 ENE 43 59 23 32 0.0
23/11:30am 11.6 5 -0.2 44 4.8 N 24 37 13 20 0.0
23/11:00am 11.1 5 0.7 48 4.3 NNE 22 35 12 19 0.0
23/10:30am 11.3 7 0.7 48 4.4 ESE 13 46 7 25 0.0
23/10:00am 11.2 6.8 0.2 46 4.5 NNE 13 32 7 17 0.0
23/09:30am 10.8 7.2 0.6 49 4.2 SSW 9 19 5 10 0.0
23/09:00am 11.2 6.4 -0.1 45 4.6 N 15 32 8 17 0.0
23/08:30am 11 6.9 -0.1 46 4.5 NNE 11 22 6 12 0.0
23/08:00am 9.5 6.4 1.3 56 3.4 NE 7 15 4 8 0.0
23/07:30am 9.7 6.5 0.9 54 3.6 W 7 13 4 7 0.0
23/07:00am 9.1 6.2 1.3 58 3.2 SSW 6 11 3 6 0.0
23/06:30am 9.7 6.1 0.6 53 3.7 S 9 15 5 8 0.0
23/06:00am 7.5 4.6 1.6 66 2.4 S 6 26 3 14 0.0
23/05:30am 7.6 4.6 1.7 66 2.4 SW 7 13 4 7 0.0
23/05:00am 8.1 4.3 1.8 64 2.6 S 11 19 6 10 0.0
23/04:30am 7.7 4.7 2.2 68 2.3 SW 7 13 4 7 0.0
23/04:00am 7.5 4.2 2.5 70 2.1 S 9 13 5 7 0.0
23/03:30am 7.5 3.8 2.2 69 2.2 SW 11 17 6 9 0.0
23/03:00am 7.8 4.5 2.3 68 2.3 WSW 9 17 5 9 0.0
23/02:30am 6 3.2 2.9 80 1.3 SSW 7 13 4 7 0.0
23/02:00am 5.5 2.7 3.3 86 0.9 SW 7 13 4 7 0.0
23/01:30am 3.7 0.8 2.7 93 0.4 WSW 7 17 4 9 0.0
23/01:00am 3.7 1.5 3.2 97 0.2 SSW 4 9 2 5 0.0
23/12:30am 4.3 1.5 3.3 93 0.4 WNW 7 9 4 5 0.0
23/12:00am 4.5 1.3 3.3 92 0.5 SW 9 19 5 10 0.0
22/11:30pm 4.9 2.3 4 94 0.4 WNW 7 13 4 7 0.0
22/11:00pm 3.9 1.7 3.4 97 0.2 S 4 11 2 6 0.0
22/10:30pm 4.2 1.7 3.7 97 0.2 N 6 15 3 8 0.0
22/10:00pm 4.6 2.2 4.1 97 0.2 N 6 9 3 5 0.0
22/09:30pm 5.1 2.7 4.4 95 0.3 W 6 11 3 6 0.0
22/09:00pm 5.2 2.7 4.5 95 0.3 N 7 9 4 5 0.0
22/08:30pm 6.2 4.3 4.8 91 0.6 NE 4 11 2 6 0.0
22/08:00pm 7.2 5 5.4 88 0.8 WNW 6 7 3 4 0.0
22/07:30pm 9.2 6 5.2 76 1.8 E 11 15 6 8 0.0
22/07:00pm 8.3 7 5.9 85 1.1 NNE 2 7 1 4 0.0
22/06:30pm 8.5 6.4 5.6 82 1.3 NNE 6 7 3 4 0.0
22/06:00pm 8.9 6.8 5.6 80 1.5 NNE 6 9 3 5 0.0
22/05:30pm 9.3 6.9 5.1 75 1.9 NNE 7 13 4 7 0.0
22/05:00pm 9.5 7.4 6 79 1.6 NNE 6 9 3 5 0.0
22/04:30pm 10.9 8.7 5.5 69 2.5 NNW 6 9 3 5 0.0
22/04:00pm 13.2 10.8 4.2 54 4.1 N 6 11 3 6 0.0
22/03:30pm 13.5 10.9 4.1 53 4.3 NNE 7 9 4 5 0.0
22/03:00pm 13.6 10.6 3.9 52 4.4 N 9 13 5 7 0.0
22/02:30pm 13.6 11.1 3.9 52 4.4 NNE 6 11 3 6 0.0
22/02:00pm 12.3 10.7 4.4 58 3.6 SSW 2 7 1 4 0.0
22/01:30pm 11.6 10.4 4.6 62 3.2 CALM 0 4 0 2 0.0
22/01:00pm 10.9 8.5 4.5 64 2.9 SW 6 9 3 5 0.0
22/12:30pm 9.9 6.9 4.3 68 2.5 SSW 9 13 5 7 0.0
22/12:00pm 9.4 7 4.2 70 2.3 SW 6 9 3 5 0.0
22/11:30am 9 7.7 4 71 2.2 CALM 0 6 0 3 0.0
22/11:00am 7.5 5.1 4.3 80 1.4 NNW 6 9 3 5 0.0
22/10:30am 5.6 4.3 4.2 91 0.6 CALM 0 0 0 0 0.0
22/10:00am 3.7 2.2 3 95 0.3 CALM 0 6 0 3 0.0
22/09:30am 3.5 2 2.8 95 0.3 CALM 0 0 0 0 0.0
22/09:00am 1.5 -0.3 1 96 0.2 CALM 0 0 0 0 0.0
22/08:30am 0.3 CALM 0 0 0 0 0.0
22/08:00am -0.8 CALM 0 0 0 0 0.0
22/07:30am -0.3 NNW 2 6 1 3 0.0
22/07:00am -0.5 NNE 7 9 4 5 0.0
22/06:30am 0.2 N 4 6 2 3 0.0
22/06:00am 0.5 N 2 9 1 5 0.0
22/05:30am 0.1 N 6 7 3 4 0.0
22/05:00am 0.2 NNE 6 7 3 4 0.0
22/04:30am 0.6 -2.1 0.3 98 0.1 N 4 7 2 4 0.0
22/04:00am 0.9 -0.9 0.9 100 0 CALM 0 6 0 3 0.0
22/03:30am 0.9 -0.9 0.9 100 0 CALM 0 0 0 0 0.0
22/03:00am 1.1 -2.1 0.8 98 0.1 NE 7 9 4 5 0.0
22/02:30am 1 -1.6 1 100 0 NE 4 9 2 5 0.0
22/02:00am 0.8 -2.4 0.5 98 0.1 NNW 7 9 4 5 0.0
22/01:30am 1 -2.5 1 100 0 ENE 9 11 5 6 0.0
22/01:00am 0.8 -1.1 0.5 98 0.1 CALM 0 0 0 0 0.0
22/12:30am 0.7 -1.6 0.7 100 0 ENE 2 6 1 3 0.0
22/12:00am 1 -2 0.7 98 0.1 E 6 7 3 4 0.0
21/11:30pm 0.9 -2.3 0.6 98 0.1 NNE 7 9 4 5 0.0
21/11:00pm 1.5 -1.6 1.2 98 0.1 NE 7 9 4 5 0.0
21/10:30pm 1.9 0.2 1.6 98 0.1 CALM 0 0 0 0 0.0
21/10:00pm 2.4 0.7 1.9 96 0.2 CALM 0 0 0 0 0.0
21/09:30pm 2.6 0.2 2.3 98 0.1 NNE 4 7 2 4 0.0
21/09:00pm 3 0.1 2.8 99 0.1 NE 7 9 4 5 0.0
21/08:30pm 4 1.5 3.5 97 0.2 NE 6 7 3 4 0.0
21/08:00pm 4.3 2.9 3.6 95 0.3 CALM 0 0 0 0 0.0
21/07:30pm 4.9 3.6 4 94 0.4 CALM 0 0 0 0 0.0
21/07:00pm 6.1 4.4 4 86 0.9 NW 2 7 1 4 0.0
21/06:30pm 6.1 3.5 4.2 88 0.8 NE 7 11 4 6 0.0
21/06:00pm 6.9 5.2 3.9 81 1.3 ESE 2 6 1 3 0.0
21/05:30pm 7.5 5.8 3.8 77 1.6 SW 2 9 1 5 0.0
21/05:00pm 7.8 5.4 4.1 77 1.6 WSW 6 11 3 6 0.0
21/04:30pm 8.7 5.6 3.6 70 2.2 S 9 13 5 7 0.0
21/04:00pm 9.3 5.9 3.8 68 2.4 SW 11 17 6 9 0.0
21/03:30pm 9.8 6.2 2.8 61 3 SW 11 17 6 9 0.0
21/03:00pm 9.9 5.9 2.7 61 3.1 SSW 13 24 7 13 0.0
21/02:30pm 10.1 7 3.7 64 2.8 SSW 9 17 5 9 0.0
21/02:00pm 10.1 6.2 3.2 62 3 S 13 24 7 13 0.0
21/01:30pm 10.2 6 3.6 63 2.9 SSW 15 24 8 13 0.0
21/01:00pm 10.2 6.3 3.6 63 2.9 SSW 13 20 7 11 0.0
21/12:30pm 9.9 5.9 2.9 62 3 SSW 13 20 7 11 0.0
21/12:00pm 9.3 6.6 2.7 63 2.8 S 6 9 3 5 0.0
21/11:30am 8.5 5.7 2 63 2.7 SSE 6 9 3 5 0.0
21/11:00am 7.8 6.3 3.1 72 2 CALM 0 0 0 0 0.0
21/10:30am 7.6 6.2 3.6 76 1.7 CALM 0 0 0 0 0.0
21/10:00am 6.8 5.1 4 82 1.2 NNE 2 6 1 3 0.0
21/09:30am 4.2 1.7 3.5 95 0.3 NE 6 7 3 4 0.0
21/09:00am 2 -0.1 1.7 98 0.1 NNE 2 6 1 3 1.8
21/08:30am 1.3 -0.5 1 98 0.1 CALM 0 0 0 0 1.8
21/08:00am 1.1 -1.9 0.8 98 0.1 NNE 6 9 3 5 1.8
21/07:30am 0.7 -2.6 0.4 98 0.1 NNW 7 9 4 5 1.8
21/07:00am 0.8 -2.2 0.5 98 0.1 NNE 6 7 3 4 1.8
21/06:30am 1.3 -1.3 1 98 0.1 N 4 9 2 5 1.8
21/06:00am 1.7 -1.2 1.2 96 0.2 NNE 6 7 3 4 1.8
21/05:30am 2.3 0.5 1.5 94 0.3 CALM 0 0 0 0 1.8
21/05:00am 1.9 -1.1 1.1 94 0.3 NNE 6 6 3 3 1.8
21/04:30am 2.5 -0.4 1.5 93 0.4 NE 6 7 3 4 1.8
21/04:00am 2.6 0 1 89 0.6 NW 4 9 2 5 1.8
21/03:30am 4 1.9 1.7 85 0.9 W 2 7 1 4 1.8
21/03:00am 5 0.7 1.2 76 1.5 SW 13 19 7 10 1.8
21/02:30am 5.9 1.6 0.8 70 2 WSW 13 19 7 10 1.8
21/02:00am 5.5 0.8 0.9 72 1.8 WSW 15 24 8 13 1.8
21/01:30am 3.9 0.4 1.1 82 1.1 S 9 17 5 9 1.8
21/01:00am 4.4 1.3 1.3 80 1.2 S 7 11 4 6 1.8
21/12:30am 5.6 1.3 0.8 71 1.9 W 13 20 7 11 1.8
21/12:00am 6.2 1.1 0.6 67 2.2 WSW 17 28 9 15 1.8
20/11:30pm 5.8 1.5 1 71 1.9 WSW 13 20 7 11 1.8
20/11:00pm 6 0.4 0.9 70 2 WSW 20 33 11 18 1.8
20/10:30pm 6 1.7 0.9 70 2 SW 13 30 7 16 1.8
20/10:00pm 5 1.2 2 81 1.2 SW 11 19 6 10 1.8
20/09:30pm 6.3 1.2 1 69 2.1 WSW 17 24 9 13 1.8
20/09:00pm 5.8 2.1 2.6 80 1.3 WSW 11 19 6 10 1.8
20/08:30pm 5.4 2.6 3.2 86 0.9 SSW 7 15 4 8 1.8
20/08:00pm 5.4 2.6 3 84 1 WSW 7 11 4 6 1.6
20/07:30pm 5 2.3 2.5 84 1 SSE 6 7 3 4 1.6
20/07:00pm 4.9 2.6 2.7 86 0.9 E 4 11 2 6 1.6
20/06:30pm 5.6 2.7 2.7 81 1.2 SW 7 11 4 6 1.6
20/06:00pm 6.2 1.7 2.3 76 1.6 WSW 15 20 8 11 1.6
20/05:30pm 6.6 2.1 1.9 72 1.9 WSW 15 22 8 12 1.6
Data Provided by Australian Government Bureau of Meteorology